Time;durP1;ratioP1;P1;durP2;ratioP2;P2;SDS_P1;SDS_P2;PMS_P1;PMS_P2;Temp;Humidity;BMP_temperature;BMP_pressure;BME280_temperature;BME280_humidity;BME280_pressure;Samples;Min_cycle;Max_cycle;Signal;HPM_P1;HPM_P2
2021/03/07 00:00:28;;;;;;;19.10;15.80;;;4.40;99.90;;;;;;5093787;28;20581;-75
2021/03/07 00:02:54;;;;;;;17.73;15.27;;;4.40;1.00;;;;;;5089646;28;20295;-75
2021/03/07 00:05:20;;;;;;;19.47;15.93;;;4.30;11.80;;;;;;5091203;28;20284;-75
2021/03/07 00:07:48;;;;;;;18.52;14.57;;;4.30;1.00;;;;;;5086738;28;20434;-74
2021/03/07 00:10:16;;;;;;;17.75;14.90;;;4.30;99.90;;;;;;5089977;28;20207;-76
2021/03/07 00:12:42;;;;;;;19.33;15.88;;;4.30;1.00;;;;;;5072672;28;20685;-77
2021/03/07 00:15:11;;;;;;;16.00;14.32;;;4.30;99.90;;;;;;5093769;28;20226;-76
2021/03/07 00:17:37;;;;;;;18.65;14.55;;;4.20;1.00;;;;;;5090828;28;20168;-75
2021/03/07 00:20:05;;;;;;;17.20;15.00;;;4.20;59.50;;;;;;5094825;28;20181;-75
2021/03/07 00:22:31;;;;;;;17.95;14.55;;;4.20;99.90;;;;;;5091515;28;20188;-70
2021/03/07 00:24:56;;;;;;;16.10;14.40;;;4.20;1.00;;;;;;5092620;28;20198;-76
2021/03/07 00:27:22;;;;;;;17.50;14.87;;;4.20;99.90;;;;;;5093773;28;20419;-75
2021/03/07 00:29:48;;;;;;;19.40;15.87;;;4.20;1.00;;;;;;5090653;28;20216;-75
2021/03/07 00:32:13;;;;;;;18.30;16.40;;;4.20;99.90;;;;;;5091254;28;20200;-70
2021/03/07 00:34:39;;;;;;;18.67;16.30;;;4.20;1.00;;;;;;5096787;28;20181;-70
2021/03/07 00:37:04;;;;;;;18.27;16.37;;;4.10;1.00;;;;;;5091494;28;20892;-76
2021/03/07 00:39:30;;;;;;;18.30;15.80;;;4.00;1.00;;;;;;5089917;28;20599;-75
2021/03/07 00:41:57;;;;;;;17.25;14.27;;;3.80;33.50;;;;;;5091575;28;20702;-75
2021/03/07 00:44:23;;;;;;;19.25;15.73;;;3.60;1.00;;;;;;5090503;28;20184;-77
2021/03/07 00:46:49;;;;;;;19.57;16.70;;;3.60;99.90;;;;;;5091353;28;20173;-77
2021/03/07 00:49:32;;;;;;;20.87;16.57;;;3.60;99.90;;;;;;5075966;28;20700;-77
2021/03/07 00:51:58;;;;;;;19.73;15.80;;;3.50;99.90;;;;;;5080167;28;20184;-75
2021/03/07 00:54:24;;;;;;;19.40;15.32;;;3.40;99.90;;;;;;5088967;28;20249;-76
2021/03/07 00:56:49;;;;;;;19.43;15.40;;;3.30;95.90;;;;;;5086904;28;20690;-75
2021/03/07 00:59:15;;;;;;;20.37;15.87;;;3.30;99.90;;;;;;5090335;28;20184;-75
2021/03/07 01:01:41;;;;;;;20.50;16.60;;;3.20;1.00;;;;;;5070578;28;20524;-76
2021/03/07 01:04:07;;;;;;;20.85;16.23;;;3.20;1.00;;;;;;5089351;28;21106;-75
2021/03/07 01:06:33;;;;;;;18.90;16.20;;;3.10;96.90;;;;;;5084471;28;20272;-75
2021/03/07 01:08:59;;;;;;;19.02;15.38;;;3.10;99.90;;;;;;5089870;28;20867;-70
2021/03/07 01:11:26;;;;;;;18.23;15.15;;;3.00;99.90;;;;;;5090804;28;20184;-74
2021/03/07 01:13:52;;;;;;;18.80;15.43;;;3.00;99.90;;;;;;5089958;28;20192;-74
2021/03/07 01:16:17;;;;;;;18.63;15.45;;;2.90;99.90;;;;;;5089345;28;20192;-73
2021/03/07 01:18:43;;;;;;;18.90;14.07;;;3.00;99.90;;;;;;5089629;28;20179;-73
2021/03/07 01:21:08;;;;;;;17.67;14.63;;;2.90;1.00;;;;;;5088256;28;20274;-75
2021/03/07 01:23:35;;;;;;;20.20;14.67;;;2.90;1.00;;;;;;5103288;28;20188;-74
2021/03/07 01:26:01;;;;;;;17.33;14.43;;;2.90;1.00;;;;;;5089558;28;20183;-74
2021/03/07 01:28:27;;;;;;;17.37;14.03;;;3.00;1.00;;;;;;5089224;28;20192;-73
2021/03/07 01:30:53;;;;;;;19.17;14.35;;;2.90;1.00;;;;;;5089260;28;20478;-73
2021/03/07 01:33:19;;;;;;;15.77;13.43;;;3.00;1.00;;;;;;5090420;28;20179;-73
2021/03/07 01:35:44;;;;;;;16.40;14.13;;;3.00;1.00;;;;;;5088129;28;20473;-74
2021/03/07 01:38:10;;;;;;;17.43;14.40;;;3.00;1.00;;;;;;5090008;28;20184;-75
2021/03/07 01:40:47;;;;;;;16.73;14.47;;;3.00;1.00;;;;;;5090066;28;20336;-74
2021/03/07 01:43:13;;;;;;;17.73;13.80;;;3.00;1.00;;;;;;5071350;28;20184;-74
2021/03/07 01:45:40;;;;;;;20.83;14.95;;;2.90;1.00;;;;;;5090310;28;20209;-74
2021/03/07 01:48:08;;;;;;;19.80;14.45;;;3.00;1.00;;;;;;5089514;28;20191;-74
2021/03/07 01:50:37;;;;;;;16.33;13.82;;;3.00;1.00;;;;;;5092300;28;20258;-74
2021/03/07 01:53:03;;;;;;;18.65;14.35;;;2.90;1.00;;;;;;5070928;28;20287;-70
2021/03/07 01:55:32;;;;;;;15.43;13.20;;;2.90;1.00;;;;;;5089319;28;20172;-73
2021/03/07 01:58:07;;;;;;;17.05;14.35;;;2.90;1.00;;;;;;5088552;28;20242;-69
2021/03/07 02:00:34;;;;;;;14.85;13.25;;;2.90;1.00;;;;;;5088557;28;20188;-73
2021/03/07 02:02:59;;;;;;;17.30;14.30;;;2.90;1.00;;;;;;5090435;28;20178;-73
2021/03/07 02:05:26;;;;;;;15.00;11.93;;;2.90;1.00;;;;;;5086013;28;20177;-73
2021/03/07 02:07:51;;;;;;;18.63;13.95;;;2.90;1.00;;;;;;5086694;28;20565;-73
2021/03/07 02:10:24;;;;;;;14.73;11.80;;;2.90;1.00;;;;;;5088488;28;20243;-74
2021/03/07 02:12:53;;;;;;;15.63;11.15;;;2.90;1.00;;;;;;5088015;28;20952;-74
2021/03/07 02:15:20;;;;;;;16.17;12.02;;;2.90;1.00;;;;;;5088483;28;20184;-74
2021/03/07 02:17:47;;;;;;;14.23;12.50;;;2.90;1.00;;;;;;5088446;28;20748;-75
2021/03/07 02:20:16;;;;;;;13.00;11.27;;;2.90;1.00;;;;;;5086278;28;20184;-75
2021/03/07 02:22:47;;;;;;;12.98;10.63;;;2.90;1.00;;;;;;5071259;28;20799;-75
2021/03/07 02:25:13;;;;;;;14.30;10.98;;;2.90;1.00;;;;;;5088756;28;20843;-76
2021/03/07 02:27:39;;;;;;;14.07;11.30;;;2.90;1.00;;;;;;5086809;28;20275;-75
2021/03/07 02:30:11;;;;;;;14.10;11.70;;;2.90;1.00;;;;;;5088154;28;20282;-70
2021/03/07 02:32:49;;;;;;;14.27;12.40;;;2.90;1.00;;;;;;5088086;28;20462;-74
2021/03/07 02:35:20;;;;;;;15.43;11.90;;;2.90;1.00;;;;;;5088560;28;20287;-75
2021/03/07 02:37:50;;;;;;;14.77;12.27;;;2.90;1.00;;;;;;5090804;28;20186;-74
2021/03/07 02:40:19;;;;;;;13.70;12.27;;;2.90;1.00;;;;;;5079307;28;20183;-75
2021/03/07 02:42:46;;;;;;;12.90;11.45;;;3.00;1.00;;;;;;5086674;28;20187;-74
2021/03/07 02:45:16;;;;;;;12.20;10.65;;;3.00;1.00;;;;;;5079733;28;20267;-75
2021/03/07 02:47:47;;;;;;;12.48;11.15;;;3.00;1.00;;;;;;5088363;28;20584;-76
2021/03/07 02:50:39;;;;;;;13.35;11.25;;;3.00;1.00;;;;;;5098407;28;20192;-75
2021/03/07 02:53:08;;;;;;;15.75;12.07;;;3.00;1.00;;;;;;5056705;28;20198;-76
2021/03/07 02:55:37;;;;;;;14.65;11.95;;;3.10;1.00;;;;;;5086942;28;20254;-75
2021/03/07 02:58:12;;;;;;;14.30;11.75;;;3.10;1.00;;;;;;5088396;28;20327;-76
2021/03/07 03:00:38;;;;;;;13.68;11.13;;;3.10;1.00;;;;;;5087930;28;20229;-76
2021/03/07 03:03:11;;;;;;;12.55;11.15;;;3.10;1.00;;;;;;5088239;28;20192;-76
2021/03/07 03:05:38;;;;;;;13.90;11.40;;;3.10;1.00;;;;;;5087543;28;20215;-75
2021/03/07 03:08:04;;;;;;;13.82;11.38;;;3.10;1.00;;;;;;5068024;28;20271;-76
2021/03/07 03:10:31;;;;;;;13.18;10.77;;;3.10;1.00;;;;;;5087683;28;20203;-75
2021/03/07 03:12:59;;;;;;;15.07;9.77;;;3.20;99.90;;;;;;5088154;28;20173;-75
2021/03/07 03:15:25;;;;;;;10.88;9.45;;;3.30;99.90;;;;;;5077074;28;20173;-76
2021/03/07 03:17:52;;;;;;;10.63;9.43;;;3.30;99.90;;;;;;5087589;28;20647;-76
2021/03/07 03:20:20;;;;;;;15.23;9.88;;;3.40;1.00;;;;;;5087287;28;20434;-76
2021/03/07 03:22:47;;;;;;;14.52;9.77;;;3.40;1.00;;;;;;5088568;28;20643;-76
2021/03/07 03:25:13;;;;;;;13.90;10.05;;;3.40;1.00;;;;;;5087340;28;20527;-76
2021/03/07 03:27:39;;;;;;;15.38;11.13;;;3.50;1.00;;;;;;5088567;28;20184;-76
2021/03/07 03:30:11;;;;;;;12.53;10.17;;;3.50;90.70;;;;;;5087601;28;20246;-76
2021/03/07 03:32:38;;;;;;;11.40;9.65;;;3.50;1.00;;;;;;5101629;28;20439;-76
2021/03/07 03:35:09;;;;;;;14.60;11.60;;;3.40;1.00;;;;;;5088046;28;20188;-78
2021/03/07 03:37:36;;;;;;;13.90;11.38;;;3.40;1.00;;;;;;5087993;28;20650;-75
2021/03/07 03:40:08;;;;;;;15.05;11.32;;;3.40;79.30;;;;;;5088964;28;20218;-75
2021/03/07 03:42:37;;;;;;;14.85;10.75;;;3.30;99.90;;;;;;5091917;28;20187;-75
2021/03/07 03:45:06;;;;;;;12.38;10.85;;;3.20;99.90;;;;;;5091579;28;20712;-75
2021/03/07 03:47:33;;;;;;;13.90;10.80;;;3.20;99.90;;;;;;5091422;28;20290;-75
2021/03/07 03:50:00;;;;;;;13.00;10.40;;;3.20;99.90;;;;;;5091057;28;20213;-74
2021/03/07 03:52:28;;;;;;;13.13;10.68;;;3.10;99.90;;;;;;5092164;28;20772;-75
2021/03/07 03:55:08;;;;;;;14.20;10.52;;;3.00;99.90;;;;;;5089959;28;20187;-75
2021/03/07 03:57:36;;;;;;;12.57;10.25;;;3.10;99.90;;;;;;5092054;28;20236;-74
2021/03/07 04:00:07;;;;;;;14.93;10.55;;;3.10;99.90;;;;;;5091301;28;20230;-75
2021/03/07 04:02:34;;;;;;;12.88;10.43;;;3.10;99.90;;;;;;5079193;28;20184;-75
2021/03/07 04:05:04;;;;;;;12.27;10.15;;;3.10;99.90;;;;;;5089847;28;20203;-75
2021/03/07 04:07:31;;;;;;;13.15;9.90;;;3.10;1.00;;;;;;5092202;28;20828;-73
2021/03/07 04:09:57;;;;;;;13.32;10.50;;;3.10;1.00;;;;;;5086967;28;20222;-75
2021/03/07 04:12:23;;;;;;;12.23;9.13;;;3.10;1.00;;;;;;5092068;28;20185;-74
2021/03/07 04:14:51;;;;;;;13.07;10.10;;;3.00;1.00;;;;;;5091012;28;21179;-76
2021/03/07 04:17:22;;;;;;;15.07;11.43;;;3.00;1.00;;;;;;5090738;28;20183;-76
2021/03/07 04:19:49;;;;;;;16.77;11.05;;;3.00;99.90;;;;;;5090313;28;20680;-75
2021/03/07 04:22:15;;;;;;;16.17;11.60;;;3.00;1.00;;;;;;5090928;28;20621;-76
2021/03/07 04:24:41;;;;;;;16.60;10.73;;;3.00;1.00;;;;;;5090286;28;20191;-76
2021/03/07 04:27:08;;;;;;;15.00;10.93;;;2.90;1.00;;;;;;5091180;28;20225;-76
2021/03/07 04:29:36;;;;;;;14.65;10.65;;;2.90;1.00;;;;;;5088758;28;20577;-75
2021/03/07 04:32:03;;;;;;;17.67;11.80;;;2.90;99.90;;;;;;5091709;28;20178;-75
2021/03/07 04:34:28;;;;;;;16.17;10.23;;;2.80;99.90;;;;;;5089834;28;20188;-75
2021/03/07 04:36:54;;;;;;;14.13;10.60;;;2.70;99.90;;;;;;5091634;28;20588;-75
2021/03/07 04:39:20;;;;;;;17.47;10.97;;;2.70;99.90;;;;;;5089843;28;20706;-76
2021/03/07 04:41:46;;;;;;;17.23;11.50;;;2.70;1.00;;;;;;5091625;28;20434;-75
2021/03/07 04:44:11;;;;;;;15.63;10.63;;;2.60;99.90;;;;;;5092639;28;20188;-76
2021/03/07 04:46:37;;;;;;;15.40;10.87;;;2.60;1.00;;;;;;5100714;28;20184;-75
2021/03/07 04:49:03;;;;;;;16.60;11.70;;;2.60;1.00;;;;;;5090343;28;20281;-76
2021/03/07 04:51:28;;;;;;;16.20;11.30;;;2.60;1.00;;;;;;5089598;28;20668;-75
2021/03/07 04:53:54;;;;;;;18.93;11.80;;;2.60;99.90;;;;;;5089696;28;20584;-75
2021/03/07 04:56:19;;;;;;;20.57;13.33;;;2.60;99.90;;;;;;5090878;28;20214;-75
2021/03/07 04:58:45;;;;;;;18.27;12.50;;;2.70;99.90;;;;;;5088984;28;20917;-75
2021/03/07 05:01:11;;;;;;;17.63;11.87;;;2.70;1.00;;;;;;5093628;28;20187;-77
2021/03/07 05:03:37;;;;;;;19.13;12.63;;;2.70;99.90;;;;;;5090091;28;20200;-76
2021/03/07 05:06:02;;;;;;;18.90;13.35;;;2.70;1.00;;;;;;5069780;28;20230;-77
2021/03/07 05:08:29;;;;;;;19.30;13.80;;;2.70;1.00;;;;;;5089789;28;20654;-76
2021/03/07 05:10:55;;;;;;;18.13;12.75;;;2.80;1.00;;;;;;5071068;28;20551;-77
2021/03/07 05:13:21;;;;;;;18.17;13.33;;;2.70;23.80;;;;;;5090848;28;20747;-76
2021/03/07 05:15:46;;;;;;;18.85;14.05;;;2.70;99.90;;;;;;5088876;28;20187;-76
2021/03/07 05:18:12;;;;;;;18.47;12.23;;;2.70;1.00;;;;;;5089288;28;20184;-76
2021/03/07 05:20:38;;;;;;;16.50;12.53;;;2.70;99.90;;;;;;5089826;28;20188;-76
2021/03/07 05:23:04;;;;;;;21.23;13.30;;;2.70;1.00;;;;;;5090004;28;20267;-77
2021/03/07 05:25:29;;;;;;;21.25;13.30;;;2.60;44.20;;;;;;5088143;28;20198;-75
2021/03/07 05:27:55;;;;;;;18.07;12.20;;;2.70;1.00;;;;;;5089773;28;20187;-75
2021/03/07 05:30:21;;;;;;;16.53;11.87;;;2.80;1.00;;;;;;5090299;28;20215;-76
2021/03/07 05:32:47;;;;;;;16.13;11.43;;;2.80;99.90;;;;;;5069865;28;20289;-76
2021/03/07 05:35:12;;;;;;;15.63;10.70;;;2.80;1.00;;;;;;5090001;28;20193;-75
2021/03/07 05:37:38;;;;;;;18.33;12.40;;;2.80;99.90;;;;;;5088574;28;20198;-76
2021/03/07 05:40:05;;;;;;;14.60;10.90;;;2.80;99.90;;;;;;5090092;28;20430;-76
2021/03/07 05:42:32;;;;;;;14.20;11.07;;;2.80;99.90;;;;;;5088961;28;20195;-76
2021/03/07 05:44:58;;;;;;;15.35;10.52;;;2.80;3.50;;;;;;5090216;28;20237;-75
2021/03/07 05:47:24;;;;;;;14.43;10.60;;;2.90;1.00;;;;;;5089961;28;20199;-75
2021/03/07 05:49:49;;;;;;;13.70;10.30;;;2.90;1.00;;;;;;5093197;28;20509;-70
2021/03/07 05:52:16;;;;;;;12.50;10.40;;;2.90;1.00;;;;;;5089313;28;20198;-75
2021/03/07 05:54:43;;;;;;;13.55;9.98;;;2.80;1.00;;;;;;5090156;28;20187;-75
2021/03/07 05:57:09;;;;;;;14.40;10.43;;;2.70;99.90;;;;;;5088980;28;20280;-75
2021/03/07 05:59:36;;;;;;;14.02;10.02;;;2.70;1.00;;;;;;5100800;28;20194;-75
2021/03/07 06:02:02;;;;;;;13.30;10.10;;;2.70;99.90;;;;;;5086420;28;20207;-76
2021/03/07 06:04:28;;;;;;;13.10;10.38;;;2.70;38.10;;;;;;5088724;28;20225;-75
2021/03/07 06:06:54;;;;;;;13.83;10.53;;;2.70;99.90;;;;;;5079169;28;20215;-75
2021/03/07 06:09:28;;;;;;;13.33;10.20;;;2.70;1.00;;;;;;5089432;28;20627;-71
2021/03/07 06:11:55;;;;;;;12.13;9.48;;;2.90;99.90;;;;;;5087873;28;20245;-76
2021/03/07 06:14:29;;;;;;;11.85;9.68;;;3.00;1.00;;;;;;5088614;28;20195;-75
2021/03/07 06:17:09;;;;;;;14.32;9.82;;;3.00;1.00;;;;;;5087515;28;20184;-75
2021/03/07 06:20:01;;;;;;;12.73;9.50;;;3.00;1.00;;;;;;5093407;28;20199;-74
2021/03/07 06:22:31;;;;;;;13.45;10.18;;;3.00;1.00;;;;;;5088735;28;20195;-74
2021/03/07 06:24:58;;;;;;;16.10;12.23;;;3.00;21.60;;;;;;5090902;28;20195;-75
2021/03/07 06:27:25;;;;;;;14.38;11.93;;;3.00;12.80;;;;;;5096528;28;20702;-76
2021/03/07 06:29:56;;;;;;;13.07;10.45;;;3.00;99.90;;;;;;5088268;28;20543;-75
2021/03/07 06:32:22;;;;;;;15.10;11.05;;;3.00;99.90;;;;;;5069004;28;20241;-75
2021/03/07 06:34:49;;;;;;;13.75;10.10;;;3.10;99.90;;;;;;5087242;28;20650;-76
2021/03/07 06:37:14;;;;;;;13.00;10.32;;;3.10;99.90;;;;;;5089486;28;20191;-77
2021/03/07 06:39:41;;;;;;;11.97;9.80;;;3.20;99.90;;;;;;5076662;28;20187;-75
2021/03/07 06:42:08;;;;;;;12.55;9.90;;;3.30;99.90;;;;;;5092986;28;20199;-75
2021/03/07 06:44:35;;;;;;;12.80;9.82;;;3.30;21.90;;;;;;5086797;28;20195;-76
2021/03/07 06:47:12;;;;;;;13.10;10.27;;;3.40;1.00;;;;;;5087656;28;20657;-76
2021/03/07 06:49:39;;;;;;;11.27;9.52;;;3.50;1.00;;;;;;5092976;28;20204;-70
2021/03/07 06:52:17;;;;;;;12.32;9.70;;;3.50;99.90;;;;;;5088785;28;20181;-70
2021/03/07 06:55:04;;;;;;;12.57;10.02;;;3.50;1.00;;;;;;5086147;28;20187;-76
2021/03/07 06:57:29;;;;;;;12.38;10.10;;;3.60;1.00;;;;;;5087620;28;20228;-77
2021/03/07 06:59:55;;;;;;;11.00;9.80;;;3.60;1.00;;;;;;5087233;28;20195;-77
2021/03/07 07:02:21;;;;;;;12.23;9.77;;;3.60;1.00;;;;;;5080185;28;20463;-76
2021/03/07 07:04:47;;;;;;;12.83;10.60;;;3.70;1.00;;;;;;5079535;28;20442;-75
2021/03/07 07:07:16;;;;;;;11.07;9.37;;;3.80;1.00;;;;;;5076579;28;20184;-71
2021/03/07 07:09:43;;;;;;;12.48;9.52;;;3.90;1.00;;;;;;5078781;28;20231;-72
2021/03/07 07:12:23;;;;;;;12.43;9.30;;;3.90;99.90;;;;;;5075744;28;20180;-72
2021/03/07 07:14:50;;;;;;;10.00;8.65;;;3.90;1.00;;;;;;5082113;28;20213;-69
2021/03/07 07:17:18;;;;;;;12.38;9.18;;;4.10;99.90;;;;;;5083968;28;20758;-72
2021/03/07 07:19:46;;;;;;;9.73;8.73;;;4.20;99.90;;;;;;5081446;28;20192;-72
2021/03/07 07:22:14;;;;;;;11.25;8.95;;;4.20;99.90;;;;;;5073822;28;20199;-74
2021/03/07 07:24:42;;;;;;;11.63;9.32;;;4.40;99.90;;;;;;5079362;28;20188;-72
2021/03/07 07:27:08;;;;;;;11.32;9.48;;;4.40;37.90;;;;;;5082244;28;20237;-73
2021/03/07 07:29:38;;;;;;;11.68;8.90;;;4.40;48.10;;;;;;5063816;28;20212;-72
2021/03/07 07:32:25;;;;;;;10.68;9.18;;;4.40;21.10;;;;;;5082876;28;20212;-73
2021/03/07 07:34:56;;;;;;;10.50;8.35;;;4.50;1.00;;;;;;5082104;28;20208;-73
2021/03/07 07:37:27;;;;;;;9.70;8.60;;;4.60;1.00;;;;;;5081286;28;20176;-73
2021/03/07 07:39:54;;;;;;;10.05;8.73;;;4.60;1.00;;;;;;5080639;28;20188;-79
2021/03/07 07:42:31;;;;;;;10.15;8.45;;;4.60;1.00;;;;;;5081753;28;20189;-78
2021/03/07 07:45:00;;;;;;;12.48;8.85;;;4.70;1.00;;;;;;5082277;28;20172;-78
2021/03/07 07:47:42;;;;;;;9.25;8.35;;;4.60;1.00;;;;;;5079788;28;21165;-76
2021/03/07 07:50:27;;;;;;;9.68;8.68;;;4.70;1.00;;;;;;5081508;28;20215;-76
2021/03/07 07:52:53;;;;;;;11.65;9.10;;;4.70;1.00;;;;;;5081732;28;20193;-74
2021/03/07 07:55:20;;;;;;;9.50;8.50;;;4.70;1.00;;;;;;5081131;28;20188;-78
2021/03/07 07:57:48;;;;;;;8.98;8.05;;;4.90;1.00;;;;;;5083845;28;20220;-75
2021/03/07 08:00:19;;;;;;;10.45;8.77;;;5.10;1.00;;;;;;5081494;28;20185;-75
2021/03/07 08:02:54;;;;;;;8.95;7.68;;;5.20;1.00;;;;;;5088557;28;20227;-75
2021/03/07 08:05:26;;;;;;;9.32;7.68;;;5.20;1.00;;;;;;5083874;28;20266;-76
2021/03/07 08:08:02;;;;;;;9.10;8.10;;;5.10;1.00;;;;;;5090379;28;20204;-76
2021/03/07 08:10:36;;;;;;;9.63;8.45;;;5.20;1.00;;;;;;5090660;28;20200;-77
2021/03/07 08:13:02;;;;;;;8.65;7.07;;;5.30;1.00;;;;;;5090152;28;20187;-76
2021/03/07 08:15:28;;;;;;;9.50;7.80;;;5.20;1.00;;;;;;5086326;28;20181;-78
2021/03/07 08:17:58;;;;;;;9.60;8.30;;;5.20;1.00;;;;;;5099217;28;20207;-77
2021/03/07 08:20:40;;;;;;;10.05;7.43;;;5.30;1.00;;;;;;5091517;28;20216;-77
2021/03/07 08:23:10;;;;;;;9.02;7.90;;;5.30;1.00;;;;;;5091252;28;20642;-77
2021/03/07 08:25:51;;;;;;;9.30;8.15;;;5.30;1.00;;;;;;5089511;28;20184;-78
2021/03/07 08:28:28;;;;;;;9.23;8.32;;;5.40;1.00;;;;;;5092122;28;20708;-79
2021/03/07 08:31:26;;;;;;;8.23;7.35;;;5.50;1.00;;;;;;5090644;28;20212;-77
2021/03/07 08:33:51;;;;;;;9.57;8.02;;;5.50;1.00;;;;;;5065072;28;20207;-79
2021/03/07 08:36:20;;;;;;;8.80;7.90;;;5.60;1.00;;;;;;5090305;28;20180;-77
2021/03/07 08:38:48;;;;;;;9.63;8.57;;;5.60;1.00;;;;;;5097847;28;20188;-78
2021/03/07 08:41:18;;;;;;;8.95;8.05;;;5.70;1.00;;;;;;5075449;28;20215;-78
2021/03/07 08:43:46;;;;;;;9.27;8.05;;;5.70;1.00;;;;;;5091686;28;20283;-78
2021/03/07 08:46:14;;;;;;;8.70;7.80;;;5.70;1.00;;;;;;5067168;28;20208;-78
2021/03/07 08:48:42;;;;;;;9.90;8.25;;;5.80;1.00;;;;;;5087945;28;20185;-79
2021/03/07 08:51:09;;;;;;;10.80;9.20;;;5.80;1.00;;;;;;5086620;28;20219;-79
2021/03/07 08:53:37;;;;;;;8.93;8.02;;;5.70;1.00;;;;;;5071882;28;20188;-80
2021/03/07 08:56:04;;;;;;;10.00;8.98;;;5.80;1.00;;;;;;5091127;28;20178;-80
2021/03/07 08:58:29;;;;;;;8.80;7.97;;;6.00;1.00;;;;;;5087347;28;20224;-79
2021/03/07 09:00:57;;;;;;;8.80;7.90;;;6.10;1.00;;;;;;5070492;28;20177;-79
2021/03/07 09:03:24;;;;;;;8.55;7.65;;;6.20;1.00;;;;;;5092578;28;20266;-69
2021/03/07 09:05:50;;;;;;;7.72;7.03;;;6.30;1.00;;;;;;5087498;28;20546;-80
2021/03/07 09:08:20;;;;;;;8.93;8.02;;;6.30;1.00;;;;;;5091214;28;20185;-80
2021/03/07 09:10:49;;;;;;;8.23;7.30;;;6.40;1.00;;;;;;5091030;28;20213;-80
2021/03/07 09:13:20;;;;;;;7.40;6.70;;;6.40;99.90;;;;;;5083076;28;20180;-79
2021/03/07 09:16:03;;;;;;;9.32;7.03;;;6.10;99.90;;;;;;5090638;28;20177;-79
2021/03/07 09:18:35;;;;;;;9.55;7.47;;;5.90;99.90;;;;;;5086351;28;20596;-69
2021/03/07 09:21:04;;;;;;;8.05;7.25;;;5.80;1.00;;;;;;5092119;28;20182;-79
2021/03/07 09:23:38;;;;;;;8.27;7.40;;;5.80;1.00;;;;;;5087669;28;20188;-79
2021/03/07 09:26:33;;;;;;;8.13;6.90;;;5.80;99.90;;;;;;5090441;28;20176;-79
2021/03/07 09:29:02;;;;;;;7.35;6.75;;;5.80;1.00;;;;;;5056649;28;20188;-69
2021/03/07 09:31:34;;;;;;;8.55;7.65;;;5.60;1.00;;;;;;5073671;28;20239;-79
2021/03/07 09:34:03;;;;;;;7.70;6.82;;;5.60;1.00;;;;;;5078215;28;20180;-79
2021/03/07 09:36:31;;;;;;;7.50;6.90;;;5.50;1.00;;;;;;5090444;28;20557;-78
2021/03/07 09:39:06;;;;;;;9.02;8.13;;;5.30;1.00;;;;;;5091663;28;20181;-79
2021/03/07 09:41:32;;;;;;;8.57;7.30;;;5.30;1.00;;;;;;5087872;28;20191;-79
2021/03/07 09:44:01;;;;;;;8.03;7.33;;;5.30;1.00;;;;;;5064013;28;20196;-72
2021/03/07 09:46:27;;;;;;;8.60;7.80;;;5.30;1.00;;;;;;5077677;28;20739;-78
2021/03/07 09:49:05;;;;;;;8.70;7.90;;;5.40;99.90;;;;;;5061290;28;20193;-74
2021/03/07 09:51:33;;;;;;;8.00;7.30;;;5.40;1.00;;;;;;5080473;28;20208;-72
2021/03/07 09:54:00;;;;;;;7.97;7.18;;;5.50;1.00;;;;;;5078649;28;20173;-75
2021/03/07 09:56:34;;;;;;;8.32;7.50;;;5.50;1.00;;;;;;5079598;28;20185;-79
2021/03/07 09:59:10;;;;;;;8.07;7.28;;;5.50;1.00;;;;;;5078945;28;20292;-69
2021/03/07 10:01:49;;;;;;;8.52;7.70;;;5.50;1.00;;;;;;5079257;28;20195;-70
2021/03/07 10:04:25;;;;;;;9.15;8.00;;;5.60;1.00;;;;;;5086795;28;20295;-78
2021/03/07 10:06:51;;;;;;;9.35;8.50;;;5.50;1.00;;;;;;5084484;28;20278;-75
2021/03/07 10:09:16;;;;;;;9.00;8.10;;;5.50;1.00;;;;;;5087588;28;20275;-78
2021/03/07 10:12:00;;;;;;;10.80;7.87;;;5.50;1.00;;;;;;5080848;28;20519;-80
2021/03/07 10:14:31;;;;;;;7.70;7.05;;;5.30;1.00;;;;;;5080408;28;21017;-70
2021/03/07 10:16:58;;;;;;;8.35;7.57;;;5.30;1.00;;;;;;5084375;28;20176;-73
2021/03/07 10:19:34;;;;;;;8.45;7.75;;;5.20;1.00;;;;;;5077967;28;20185;-72
2021/03/07 10:22:02;;;;;;;8.30;7.60;;;5.20;1.00;;;;;;5088148;28;20184;-74
2021/03/07 10:24:33;;;;;;;9.15;8.25;;;5.20;1.00;;;;;;5085518;28;20634;-74
2021/03/07 10:27:08;;;;;;;9.60;8.80;;;5.30;1.00;;;;;;5084338;28;20188;-76
2021/03/07 10:29:39;;;;;;;10.40;8.73;;;5.40;1.00;;;;;;5077867;28;20223;-75
2021/03/07 10:32:21;;;;;;;8.20;7.40;;;5.40;1.00;;;;;;5085168;28;20191;-78
2021/03/07 10:34:51;;;;;;;8.50;7.57;;;5.30;1.00;;;;;;5079109;28;20840;-79
2021/03/07 10:37:42;;;;;;;8.15;7.45;;;5.30;1.00;;;;;;5083569;28;20195;-77
2021/03/07 10:40:14;;;;;;;8.45;7.65;;;5.40;1.00;;;;;;5077536;28;20204;-70
2021/03/07 10:42:42;;;;;;;8.55;7.70;;;5.50;1.00;;;;;;5079792;28;20275;-78
2021/03/07 10:45:15;;;;;;;8.15;7.45;;;5.40;1.00;;;;;;5073067;28;20639;-77
2021/03/07 10:47:41;;;;;;;9.20;8.40;;;5.50;1.00;;;;;;5073635;28;20204;-77
2021/03/07 10:50:07;;;;;;;10.17;9.17;;;5.70;1.00;;;;;;5072339;28;20942;-76
2021/03/07 10:52:33;;;;;;;10.15;8.40;;;5.70;1.00;;;;;;5079047;28;20838;-76
2021/03/07 10:54:58;;;;;;;10.40;9.27;;;5.60;1.00;;;;;;5081502;28;20294;-74
2021/03/07 10:57:24;;;;;;;11.40;8.80;;;5.60;1.00;;;;;;5077836;28;20267;-74
2021/03/07 10:59:52;;;;;;;9.67;8.77;;;5.60;1.00;;;;;;5077097;28;20177;-79
2021/03/07 11:02:19;;;;;;;8.93;8.13;;;5.60;1.00;;;;;;5086943;28;20230;-77
2021/03/07 11:04:45;;;;;;;9.40;8.40;;;5.70;1.00;;;;;;5086447;28;20279;-74
2021/03/07 11:07:11;;;;;;;9.57;8.57;;;5.70;1.00;;;;;;5087694;28;20246;-74
2021/03/07 11:09:39;;;;;;;9.80;8.90;;;5.80;1.00;;;;;;5086857;28;20200;-74
2021/03/07 11:12:05;;;;;;;9.25;8.35;;;5.80;1.00;;;;;;5088372;28;20184;-74
2021/03/07 11:14:31;;;;;;;9.43;8.45;;;6.00;1.00;;;;;;5085670;28;20181;-74
2021/03/07 11:16:56;;;;;;;9.00;8.20;;;6.00;1.00;;;;;;5087387;28;20225;-74
2021/03/07 11:19:22;;;;;;;9.80;8.80;;;6.20;1.00;;;;;;5088128;28;20927;-74
2021/03/07 11:21:47;;;;;;;9.03;8.20;;;6.40;1.00;;;;;;5087164;28;20217;-74
2021/03/07 11:24:13;;;;;;;9.43;8.60;;;6.50;1.00;;;;;;5084416;28;20189;-74
2021/03/07 11:26:38;;;;;;;9.53;8.60;;;6.60;1.00;;;;;;5087040;28;20189;-74
2021/03/07 11:29:04;;;;;;;8.90;8.10;;;6.90;1.00;;;;;;5088174;28;20190;-74
2021/03/07 11:31:30;;;;;;;8.50;7.70;;;6.90;1.00;;;;;;5087335;28;20209;-74
2021/03/07 11:33:55;;;;;;;9.33;8.43;;;6.80;1.00;;;;;;5088006;28;20645;-76
2021/03/07 11:36:21;;;;;;;9.27;8.47;;;6.70;1.00;;;;;;5087321;28;20232;-76
2021/03/07 11:38:47;;;;;;;8.77;8.07;;;6.70;1.00;;;;;;5087298;28;20202;-76
2021/03/07 11:41:12;;;;;;;10.35;9.35;;;6.70;1.00;;;;;;5087302;28;20200;-77
2021/03/07 11:43:38;;;;;;;9.70;8.70;;;6.70;1.00;;;;;;5088281;28;20192;-75
2021/03/07 11:46:04;;;;;;;8.67;7.80;;;6.70;1.00;;;;;;5085736;28;20185;-75
2021/03/07 11:48:29;;;;;;;9.80;8.90;;;6.80;1.00;;;;;;5060891;28;20192;-74
2021/03/07 11:50:55;;;;;;;9.57;8.67;;;6.80;1.00;;;;;;5083621;28;20208;-74
2021/03/07 11:53:20;;;;;;;10.40;9.40;;;6.80;99.90;;;;;;5086547;28;20643;-74
2021/03/07 11:55:46;;;;;;;10.67;9.63;;;6.70;99.90;;;;;;5077966;28;20196;-74
2021/03/07 11:58:11;;;;;;;9.87;8.87;;;6.70;99.90;;;;;;5087290;28;20217;-76
2021/03/07 12:00:37;;;;;;;9.50;8.70;;;6.70;99.90;;;;;;5087333;28;20185;-72
2021/03/07 12:03:03;;;;;;;9.50;8.60;;;6.70;99.90;;;;;;5084346;28;20192;-75
2021/03/07 12:05:28;;;;;;;9.60;8.80;;;6.70;99.90;;;;;;5072596;28;20266;-76
2021/03/07 12:07:54;;;;;;;10.33;9.40;;;6.80;1.00;;;;;;5077863;28;20177;-75
2021/03/07 12:10:20;;;;;;;10.67;9.57;;;6.80;99.90;;;;;;5078464;28;20294;-75
2021/03/07 12:12:45;;;;;;;10.70;9.60;;;6.70;99.90;;;;;;5071707;28;20171;-76
2021/03/07 12:15:12;;;;;;;10.57;8.80;;;6.70;99.90;;;;;;5082912;28;20200;-75
2021/03/07 12:17:38;;;;;;;10.18;9.25;;;6.80;99.90;;;;;;5075319;28;20179;-73
2021/03/07 12:20:05;;;;;;;9.47;8.67;;;6.70;99.90;;;;;;5087719;28;20995;-73
2021/03/07 12:22:30;;;;;;;9.77;8.95;;;6.80;99.90;;;;;;5078376;28;20178;-73
2021/03/07 12:24:56;;;;;;;11.07;10.07;;;6.80;99.90;;;;;;5079095;28;20185;-73
2021/03/07 12:27:22;;;;;;;10.53;9.63;;;6.90;99.90;;;;;;5081963;28;20648;-72
2021/03/07 12:29:48;;;;;;;11.80;9.43;;;6.90;99.90;;;;;;5084140;28;20301;-71
2021/03/07 12:32:13;;;;;;;10.57;9.57;;;6.80;99.90;;;;;;5089792;28;20195;-72
2021/03/07 12:34:39;;;;;;;11.87;10.67;;;7.00;99.90;;;;;;5080444;28;20204;-71
2021/03/07 12:37:04;;;;;;;10.20;9.40;;;6.90;99.90;;;;;;5090965;28;20190;-71
2021/03/07 12:39:30;;;;;;;10.60;9.67;;;6.90;99.90;;;;;;5089928;28;20257;-72
2021/03/07 12:41:55;;;;;;;11.27;10.27;;;6.90;99.90;;;;;;5089184;28;20256;-71
2021/03/07 12:44:21;;;;;;;10.40;9.40;;;6.90;99.90;;;;;;5091043;28;20182;-73
2021/03/07 12:46:50;;;;;;;10.67;9.77;;;7.20;99.90;;;;;;5089929;28;20182;-72
2021/03/07 12:49:15;;;;;;;10.70;9.80;;;7.30;99.90;;;;;;5090344;28;20551;-73
2021/03/07 12:51:41;;;;;;;10.20;9.20;;;7.40;99.90;;;;;;5090001;28;20464;-73
2021/03/07 12:54:06;;;;;;;10.93;9.80;;;7.20;99.90;;;;;;5083154;28;20187;-73
2021/03/07 12:56:34;;;;;;;10.33;9.20;;;7.20;99.90;;;;;;5072048;28;20189;-71